SondeTracker

Meteorological Radiosondes Database

Operations

Sounding was ended - last measurement: 2022-12-07 13:10:10z

MAP
About Radiosonde

Number: T3950198

Launch Site: Ezeiza (AR)

Type: RS41

AUX: NO

Frequency: 403.500 MHz

Max Speed: 202 km/h at 11670 m

Average Speed: 59.83 km/h

Max Altitude: 25405 m

Average Ascent Speed: 7.50 m/s

Average Descent Speed: 32.78 m/s

Status: LOST

Status Changes
Launch Site Type AUX Frequency Status Finder Landing Point Description Changes made by
MHz LOST 0, 0 AUTO STATUS: Probably lost in the water [BOT]AUTO-STATUS - 2022-12-07 13:31:36z
APRS Statistics

Received Frames: 215

First Frame [UTC]: 2022-12-07 12:01:49z

Last Frame [UTC]: 2022-12-07 13:10:10z

Receivers: LW9EYP-12, LW9EYP-13, LW9EYP-15

Flight Time: 01:08:21 h

Distance From First Measurement: 73.29 km

Nearest City: Colonia del Sacramento (UY) [22.50 km]

Nearest Hunter: DVAS [50.58 km]

Ground Altitude: -123 m

Distance from QTH: 0.00 km

APRS Data
Receiver Number Date/Time [UTC] φ λ Course [°] Speed [km/h] Altitude [m] Description
LW9EYP-12T39501982022-12-07 13:10:10-34.5474-57.6166221131046Clb=-14.8m/s t=23.9C h=12.3% 403.500MHz Type=RS41-SG rdzTTGOsonde
LW9EYP-12T39501982022-12-07 13:09:28-34.5474-57.61637131611Clb=-15.7m/s t=18.9C h=45.4% 403.500MHz Type=RS41-SG TxOff=8h15m rdzTTGOsonde
LW9EYP-12T39501982022-12-07 13:08:57-34.5482-57.6163326112060Clb=-16.8m/s t=15.8C h=25.0% 403.500MHz Type=RS41-SG rdzTTGOsonde
LW9EYP-12T39501982022-12-07 13:08:01-34.5486-57.614532162897Clb=-16.4m/s t=8.8C h=78.4% 403.500MHz Type=RS41-SG rdzTTGOsonde
LW9EYP-12T39501982022-12-07 13:06:50-34.5488-57.612933993858Clb=-17.3m/s t=2.0C h=76.8% 403.500MHz Type=RS41-SG rdzTTGOsonde
LW9EYP-12T39501982022-12-07 13:06:23-34.5489-57.613884264243Clb=-17.0m/s t=-0.3C h=75.9% 403.500MHz Type=RS41-SG rdzTTGOsonde
LW9EYP-12T39501982022-12-07 13:05:55-34.549-57.615395264638Clb=-17.7m/s t=-3.2C h=61.0% 403.500MHz Type=RS41-SG rdzTTGOsonde
LW9EYP-12T39501982022-12-07 13:05:27-34.5486-57.6167104304980Clb=-17.2m/s t=-5.9C h=64.3% 403.500MHz Type=RS41-SG rdzTTGOsonde
LW9EYP-12T39501982022-12-07 13:04:58-34.5485-57.618592375329Clb=-17.6m/s t=-8.4C h=77.4% 403.500MHz Type=RS41-SG rdzTTGOsonde
LW9EYP-12T39501982022-12-07 13:04:29-34.5483-57.6215101525733Clb=-17.7m/s t=-9.7C h=55.0% 403.500MHz Type=RS41-SG rdzTTGOsonde
LW9EYP-12T39501982022-12-07 13:03:34-34.5481-57.628671416584Clb=-19.5m/s t=-15.1C h=71.9% 403.500MHz Type=RS41-SG TxOff=8h20m rdzTTGOsonde
LW9EYP-12T39501982022-12-07 13:02:55-34.5492-57.631871467138Clb=-19.6m/s t=-18.6C h=74.5% 403.500MHz Type=RS41-SG TxOff=8h21m rdzTTGOsonde
LW9EYP-12T39501982022-12-07 13:02:19-34.5495-57.636594657665Clb=-19.9m/s t=-21.8C h=73.8% 403.500MHz Type=RS41-SG TxOff=8h21m rdzTTGOsonde
LW9EYP-12T39501982022-12-07 13:01:52-34.5498-57.640982808080Clb=-19.7m/s t=-24.1C h=40.8% 403.500MHz Type=RS41-SG TxOff=8h21m rdzTTGOsonde
LW9EYP-15T39501982022-12-07 13:01:48-34.5499-57.641779878139Clb=-20.4m/s t=-24.7C h=39.3% p=-1.0hPa 403.499 MHz Type=RS41-SG ser=T3950198 Radiosonde
LW9EYP-12T39501982022-12-07 13:01:21-34.5508-57.6469801028505Clb=-20.7m/s t=-27.0C h=19.8% 403.500MHz Type=RS41-SG TxOff=8h22m rdzTTGOsonde
LW9EYP-12T39501982022-12-07 13:00:15-34.5533-57.6593831179324Clb=-21.7m/s t=-32.8C h=54.1% 403.500MHz Type=RS41-SG TxOff=8h23m rdzTTGOsonde
LW9EYP-12T39501982022-12-07 12:59:48-34.554-57.6673831339762Clb=-22.6m/s t=-35.4C h=30.6% 403.500MHz Type=RS41-SG TxOff=8h23m rdzTTGOsonde
LW9EYP-13T39501982022-12-07 12:59:44-34.5542-57.669841399852Clb=-23.0m/s t=-36.0C h=27.4% 403.500MHz Type=RS41-SG rdzTTGOsonde
LW9EYP-15T39501982022-12-07 12:59:34-34.555-57.67568216310199Clb=-24.4m/s t=-38.0C h=24.0% p=-1.0hPa 403.499 MHz Type=RS41-SG ser=T3950198 Radiosonde
LW9EYP-12T39501982022-12-07 12:59:25-34.5552-57.67718316910270Clb=-24.3m/s t=-38.5C h=23.7% 403.500MHz Type=RS41-SG TxOff=8h23m rdzTTGOsonde
LW9EYP-12T39501982022-12-07 12:59:05-34.5565-57.68828218010779Clb=-24.7m/s t=-42.6C h=27.9% 403.500MHz Type=RS41-SG rdzTTGOsonde
LW9EYP-15T39501982022-12-07 12:59:01-34.558-57.69898119311269Clb=-25.4m/s t=-45.5C h=37.2% p=-1.0hPa 403.499 MHz Type=RS41-SG ser=T3950198 Radiosonde
LW9EYP-12T39501982022-12-07 12:58:42-34.5582-57.70078219411344Clb=-25.3m/s t=-46.2C h=38.4% 403.500MHz Type=RS41-SG rdzTTGOsonde
LW9EYP-15T39501982022-12-07 12:58:30-34.5591-57.70848220211670Clb=-26.5m/s t=-49.0C h=34.4% p=-1.0hPa 403.499 MHz Type=RS41-SG ser=T3950198 Radiosonde
LW9EYP-13T39501982022-12-07 12:57:59-34.557-57.78261076717080Clb=-33.9m/s t=-72.0C h=4.8% 403.500MHz Type=RS41-SG TxOff=8h27m rdzTTGOsonde
LW9EYP-15T39501982022-12-07 12:57:58-34.5567-57.78371176117285Clb=-34.1m/s t=-71.1C h=3.7% p=-1.0hPa 403.499 MHz Type=RS41-SG ser=T3950198 Radiosonde
LW9EYP-13T39501982022-12-07 12:57:57-34.5559-57.7861043717806Clb=-35.0m/s t=-69.9C h=3.5% 403.500MHz Type=RS41-SG TxOff=8h28m rdzTTGOsonde
LW9EYP-13T39501982022-12-07 12:57:56-34.5554-57.7881243118532Clb=-37.9m/s t=-72.1C h=3.9% 403.500MHz Type=RS41-SG TxOff=8h28m rdzTTGOsonde
LW9EYP-13T39501982022-12-07 12:57:55-34.5543-57.78981233119356Clb=-40.0m/s t=-70.6C h=3.1% 403.500MHz Type=RS41-SG TxOff=8h28m rdzTTGOsonde
LW9EYP-13T39501982022-12-07 12:57:54-34.5534-57.7924904620243Clb=-43.4m/s t=-67.8C h=2.8% 403.500MHz Type=RS41-SG TxOff=8h29m rdzTTGOsonde
LW9EYP-15T39501982022-12-07 12:57:53-34.5541-57.7942423720965Clb=-46.0m/s t=-65.1C h=1.9% p=-1.0hPa 403.499 MHz Type=RS41-SG ser=T3950198 Radiosonde
LW9EYP-13T39501982022-12-07 12:57:52-34.5544-57.7944333121153Clb=-47.2m/s t=-64.7C h=2.0% 403.500MHz Type=RS41-SG TxOff=8h29m rdzTTGOsonde
LW9EYP-13T39501982022-12-07 12:57:51-34.5553-57.7952672022431Clb=-52.2m/s t=-63.7C h=2.0% 403.500MHz Type=RS41-SG rdzTTGOsonde
LW9EYP-13T39501982022-12-07 12:57:49-34.5559-57.7963241523989Clb=-59.1m/s t=-58.0C h=1.5% 403.500MHz Type=RS41-SG rdzTTGOsonde
LW9EYP-13T39501982022-12-07 12:57:48-34.5563-57.7968591925271Clb=-44.3m/s t=-56.2C h=1.1% 403.500MHz Type=RS41-SG rdzTTGOsonde
LW9EYP-15T39501982022-12-07 12:57:47-34.5567-57.7973622225405Clb=5.5m/s t=-56.0C h=1.0% p=-1.0hPa 403.499 MHz Type=RS41-SG ser=T3950198 Radiosonde
LW9EYP-13T39501982022-12-07 12:57:46-34.5569-57.798732225295Clb=8.3m/s t=-56.5C h=1.2% 403.500MHz Type=RS41-SG rdzTTGOsonde
LW9EYP-15T39501982022-12-07 12:57:45-34.557-57.798583925159Clb=8.2m/s t=-56.9C h=1.2% p=-1.0hPa 403.499 MHz Type=RS41-SG ser=T3950198 Radiosonde
LW9EYP-13T39501982022-12-07 12:57:42-34.5573-57.7987353924965Clb=8.7m/s t=-56.4C h=1.2% 403.500MHz Type=RS41-SG rdzTTGOsonde
LW9EYP-15T39501982022-12-07 12:57:41-34.5573-57.798864624919Clb=7.2m/s t=-56.5C h=1.1% p=-1.0hPa 403.499 MHz Type=RS41-SG ser=T3950198 Radiosonde
LW9EYP-13T39501982022-12-07 12:57:22-34.5575-57.7991441124793Clb=6.9m/s t=-57.4C h=1.4% 403.500MHz Type=RS41-SG rdzTTGOsonde
LW9EYP-15T39501982022-12-07 12:56:54-34.5577-57.7991340924672Clb=6.4m/s t=-56.5C h=1.2% p=-1.0hPa 403.499 MHz Type=RS41-SG ser=T3950198 Radiosonde
LW9EYP-13T39501982022-12-07 12:56:40-34.5577-57.7992118224627Clb=5.5m/s t=-56.2C h=1.3% 403.500MHz Type=RS41-SG rdzTTGOsonde
LW9EYP-13T39501982022-12-07 12:56:04-34.5579-57.799350424476Clb=8.4m/s t=-56.1C h=1.2% 403.500MHz Type=RS41-SG rdzTTGOsonde
LW9EYP-15T39501982022-12-07 12:55:58-34.558-57.799315624439Clb=7.2m/s t=-56.1C h=1.1% p=-1.0hPa 403.499 MHz Type=RS41-SG ser=T3950198 Radiosonde
LW9EYP-13T39501982022-12-07 12:55:10-34.5594-57.7995173124241Clb=6.9m/s t=-57.9C h=1.3% 403.500MHz Type=RS41-SG rdzTTGOsonde
LW9EYP-15T39501982022-12-07 12:55:05-34.5596-57.7996212224211Clb=7.3m/s t=-58.1C h=1.2% p=-1.0hPa 403.499 MHz Type=RS41-SG ser=T3950198 Radiosonde
LW9EYP-13T39501982022-12-07 12:54:37-34.5603-57.7997471324086Clb=7.0m/s t=-58.9C h=1.5% 403.500MHz Type=RS41-SG rdzTTGOsonde
LW9EYP-15T39501982022-12-07 12:54:15-34.5607-57.818923987Clb=9.7m/s t=-58.7C h=1.2% p=-1.0hPa 403.499 MHz Type=RS41-SG ser=T3950198 Radiosonde
LW9EYP-13T39501982022-12-07 12:54:02-34.5608-57.8003781923944Clb=10.7m/s t=-58.6C h=1.4% 403.500MHz Type=RS41-SG rdzTTGOsonde
LW9EYP-13T39501982022-12-07 12:53:26-34.5616-57.8012282023795Clb=8.1m/s t=-59.2C h=1.5% 403.500MHz Type=RS41-SG rdzTTGOsonde
LW9EYP-15T39501982022-12-07 12:53:22-34.5617-57.8013401323774Clb=8.1m/s t=-59.2C h=1.3% p=-1.0hPa 403.499 MHz Type=RS41-SG ser=T3950198 Radiosonde
LW9EYP-13T39501982022-12-07 12:52:50-34.5623-57.8021641723652Clb=5.4m/s t=-59.5C h=1.5% 403.500MHz Type=RS41-SG rdzTTGOsonde
LW9EYP-15T39501982022-12-07 12:52:22-34.5626-57.8028411723548Clb=5.8m/s t=-59.8C h=1.4% p=-1.0hPa 403.499 MHz Type=RS41-SG ser=T3950198 Radiosonde
LW9EYP-13T39501982022-12-07 12:52:07-34.5627-57.80311032223503Clb=7.7m/s t=-59.7C h=1.6% 403.500MHz Type=RS41-SG rdzTTGOsonde
LW9EYP-13T39501982022-12-07 12:51:24-34.5628-57.8037601323346Clb=7.4m/s t=-58.9C h=1.6% 403.500MHz Type=RS41-SG rdzTTGOsonde
LW9EYP-15T39501982022-12-07 12:51:18-34.5629-57.8038101423320Clb=8.2m/s t=-58.8C h=1.4% p=-1.0hPa 403.499 MHz Type=RS41-SG ser=T3950198 Radiosonde
LW9EYP-13T39501982022-12-07 12:50:50-34.5629-57.80391711123203Clb=9.8m/s t=-59.0C h=1.5% 403.500MHz Type=RS41-SG rdzTTGOsonde
LW9EYP-15T39501982022-12-07 12:50:26-34.5629-57.8041571123085Clb=9.2m/s t=-59.4C h=1.5% p=-1.0hPa 403.499 MHz Type=RS41-SG ser=T3950198 Radiosonde
LW9EYP-13T39501982022-12-07 12:50:16-34.563-57.8042431323037Clb=5.8m/s t=-59.7C h=1.5% 403.500MHz Type=RS41-SG rdzTTGOsonde
LW9EYP-13T39501982022-12-07 12:49:36-34.5634-57.8055512622875Clb=8.6m/s t=-62.5C h=1.8% 403.500MHz Type=RS41-SG rdzTTGOsonde
LW9EYP-15T39501982022-12-07 12:49:29-34.5634-57.80561191122847Clb=5.8m/s t=-63.2C h=1.7% p=-1.0hPa 403.499 MHz Type=RS41-SG ser=T3950198 Radiosonde
LW9EYP-13T39501982022-12-07 12:48:54-34.5637-57.8064891522732Clb=7.8m/s t=-63.7C h=2.0% 403.500MHz Type=RS41-SG rdzTTGOsonde
LW9EYP-15T39501982022-12-07 12:48:29-34.5641-57.8071421522635Clb=8.6m/s t=-64.0C h=1.8% p=-1.0hPa 403.499 MHz Type=RS41-SG ser=T3950198 Radiosonde
LW9EYP-13T39501982022-12-07 12:48:12-34.5642-57.8075692022590Clb=4.6m/s t=-64.4C h=2.0% 403.500MHz Type=RS41-SG rdzTTGOsonde
LW9EYP-13T39501982022-12-07 12:47:31-34.5648-57.8085431722443Clb=7.5m/s t=-64.4C h=2.2% 403.500MHz Type=RS41-SG rdzTTGOsonde
LW9EYP-15T39501982022-12-07 12:47:29-34.5648-57.808618922425Clb=5.0m/s t=-64.3C h=1.9% p=-1.0hPa 403.499 MHz Type=RS41-SG ser=T3950198 Radiosonde
LW9EYP-13T39501982022-12-07 12:46:45-34.5651-57.8095591322275Clb=8.2m/s t=-64.3C h=2.1% 403.500MHz Type=RS41-SG rdzTTGOsonde
LW9EYP-15T39501982022-12-07 12:46:27-34.5651-57.8111422196Clb=7.7m/s t=-64.2C h=1.9% p=-1.0hPa 403.499 MHz Type=RS41-SG ser=T3950198 Radiosonde
LW9EYP-13T39501982022-12-07 12:46:04-34.5652-57.8157722130Clb=6.2m/s t=-65.0C h=2.2% 403.500MHz Type=RS41-SG rdzTTGOsonde
LW9EYP-15T39501982022-12-07 12:45:28-34.5653-57.8099268421988Clb=6.5m/s t=-64.4C h=2.1% p=-1.0hPa 403.499 MHz Type=RS41-SG ser=T3950198 Radiosonde
LW9EYP-13T39501982022-12-07 12:45:16-34.5653-57.809921121954Clb=8.7m/s t=-64.5C h=2.4% 403.500MHz Type=RS41-SG rdzTTGOsonde
LW9EYP-13T39501982022-12-07 12:44:34-34.5661-57.80983292821791Clb=8.1m/s t=-64.5C h=2.4% 403.500MHz Type=RS41-SG rdzTTGOsonde
LW9EYP-15T39501982022-12-07 12:44:28-34.5663-57.80973412221769Clb=7.4m/s t=-64.5C h=2.2% p=-1.0hPa 403.499 MHz Type=RS41-SG ser=T3950198 Radiosonde
LW9EYP-13T39501982022-12-07 12:43:59-34.5677-57.8097313021621Clb=7.0m/s t=-65.0C h=2.4% 403.500MHz Type=RS41-SG rdzTTGOsonde
LW9EYP-15T39501982022-12-07 12:43:44-34.5684-57.8102183121527Clb=5.6m/s t=-65.8C h=2.4% p=-1.0hPa 403.499 MHz Type=RS41-SG ser=T3950198 Radiosonde
LW9EYP-13T39501982022-12-07 12:43:27-34.5692-57.8107294321444Clb=8.9m/s t=-65.9C h=2.6% 403.500MHz Type=RS41-SG rdzTTGOsonde
LW9EYP-15T39501982022-12-07 12:43:12-34.5711-57.8116143921283Clb=6.2m/s t=-65.6C h=2.6% p=-1.0hPa 403.499 MHz Type=RS41-SG ser=T3950198 Radiosonde
LW9EYP-13T39501982022-12-07 12:43:10-34.5711-57.8116154121283Clb=6.2m/s t=-65.6C h=2.8% 403.500MHz Type=RS41-SG rdzTTGOsonde
LW9EYP-13T39501982022-12-07 12:42:44-34.5733-57.8132415921118Clb=6.8m/s t=-66.0C h=3.0% 403.500MHz Type=RS41-SG rdzTTGOsonde
LW9EYP-15T39501982022-12-07 12:42:34-34.5741-57.8139343121066Clb=7.1m/s t=-66.0C h=2.8% p=-1.0hPa 403.499 MHz Type=RS41-SG ser=T3950198 Radiosonde
LW9EYP-13T39501982022-12-07 12:42:15-34.5752-57.815463920974Clb=8.1m/s t=-65.5C h=3.2% 403.500MHz Type=RS41-SG rdzTTGOsonde
LW9EYP-15T39501982022-12-07 12:41:56-34.5764-57.8168693520846Clb=9.2m/s t=-65.2C h=2.7% p=-1.0hPa 403.499 MHz Type=RS41-SG ser=T3950198 Radiosonde
LW9EYP-13T39501982022-12-07 12:41:51-34.5765-57.817484420824Clb=7.6m/s t=-66.0C h=3.0% 403.500MHz Type=RS41-SG rdzTTGOsonde
LW9EYP-13T39501982022-12-07 12:41:32-34.5772-57.8193923020682Clb=8.6m/s t=-67.9C h=3.8% 403.500MHz Type=RS41-SG rdzTTGOsonde
LW9EYP-15T39501982022-12-07 12:41:25-34.5773-57.8201634320626Clb=7.1m/s t=-67.7C h=3.5% p=-1.0hPa 403.499 MHz Type=RS41-SG ser=T3950198 Radiosonde
LW9EYP-13T39501982022-12-07 12:41:09-34.5776-57.8217654620513Clb=8.2m/s t=-67.9C h=3.8% 403.500MHz Type=RS41-SG rdzTTGOsonde
LW9EYP-15T39501982022-12-07 12:40:57-34.5501-57.91141029316288Clb=5.4m/s t=-69.7C h=5.0% p=-1.0hPa 403.499 MHz Type=RS41-SG ser=T3950198 Radiosonde
LW9EYP-13T39501982022-12-07 12:40:47-34.5499-57.91231049616269Clb=7.8m/s t=-69.6C h=5.2% 403.500MHz Type=RS41-SG rdzTTGOsonde
LW9EYP-12T39501982022-12-07 12:40:27-34.5496-57.91521049316206Clb=5.7m/s t=-69.1C h=5.0% 403.500MHz Type=RS41-SG rdzTTGOsonde
LW9EYP-13T39501982022-12-07 12:40:01-34.5491-57.91841019416142Clb=6.5m/s t=-68.8C h=5.1% 403.500MHz Type=RS41-SG rdzTTGOsonde
LW9EYP-15T39501982022-12-07 12:39:48-34.5488-57.9203989816096Clb=5.9m/s t=-68.6C h=4.4% p=-1.0hPa 403.499 MHz Type=RS41-SG ser=T3950198 Radiosonde
LW9EYP-12T39501982022-12-07 12:39:33-34.5487-57.92169510916064Clb=8.7m/s t=-68.5C h=4.8% 403.500MHz Type=RS41-SG rdzTTGOsonde
LW9EYP-13T39501982022-12-07 12:39:07-34.5484-57.924710010415992Clb=7.6m/s t=-68.0C h=4.9% 403.500MHz Type=RS41-SG rdzTTGOsonde
LW9EYP-15T39501982022-12-07 12:38:30-34.5477-57.930110310215868Clb=7.2m/s t=-66.9C h=4.2% p=-1.0hPa 403.499 MHz Type=RS41-SG ser=T3950198 Radiosonde
LW9EYP-13T39501982022-12-07 12:38:17-34.5476-57.9313969615843Clb=7.7m/s t=-66.9C h=4.4% 403.500MHz Type=RS41-SG rdzTTGOsonde
LW9EYP-13T39501982022-12-07 12:37:29-34.5469-57.9389610615688Clb=8.4m/s t=-66.0C h=4.2% 403.500MHz Type=RS41-SG rdzTTGOsonde
LW9EYP-15T39501982022-12-07 12:37:19-34.5467-57.93951009115649Clb=6.6m/s t=-65.9C h=3.7% p=-1.0hPa 403.499 MHz Type=RS41-SG ser=T3950198 Radiosonde
LW9EYP-13T39501982022-12-07 12:36:41-34.5462-57.94459610615526Clb=8.3m/s t=-65.5C h=4.0% 403.500MHz Type=RS41-SG rdzTTGOsonde
LW9EYP-15T39501982022-12-07 12:36:06-34.546-57.94999211915424Clb=4.5m/s t=-64.8C h=3.6% p=-1.0hPa 403.499 MHz Type=RS41-SG ser=T3950198 Radiosonde
LW9EYP-13T39501982022-12-07 12:35:51-34.5459-57.95179911515396Clb=4.5m/s t=-64.5C h=3.9% 403.500MHz Type=RS41-SG rdzTTGOsonde
LW9EYP-12T39501982022-12-07 12:35:34-34.5456-57.95499612415349Clb=4.1m/s t=-64.2C h=3.8% 403.500MHz Type=RS41-SG rdzTTGOsonde
LW9EYP-13T39501982022-12-07 12:35:05-34.5453-57.95919912415283Clb=4.8m/s t=-63.5C h=3.8% 403.500MHz Type=RS41-SG rdzTTGOsonde
LW9EYP-15T39501982022-12-07 12:34:52-34.5449-57.96119912415249Clb=4.8m/s t=-63.3C h=3.5% p=-1.0hPa 403.499 MHz Type=RS41-SG ser=T3950198 Radiosonde
LW9EYP-13T39501982022-12-07 12:34:14-34.5442-57.966610212415154Clb=7.6m/s t=-62.7C h=3.8% 403.500MHz Type=RS41-SG rdzTTGOsonde
LW9EYP-12T39501982022-12-07 12:34:05-34.544-57.96819812415125Clb=6.7m/s t=-62.4C h=3.9% 403.500MHz Type=RS41-SG rdzTTGOsonde
LW9EYP-15T39501982022-12-07 12:33:37-34.5437-57.97259512615041Clb=10.2m/s t=-62.0C h=3.5% p=-1.0hPa 403.499 MHz Type=RS41-SG ser=T3950198 Radiosonde
LW9EYP-13T39501982022-12-07 12:33:23-34.5435-57.97449912015007Clb=5.7m/s t=-61.8C h=3.9% 403.500MHz Type=RS41-SG rdzTTGOsonde
LW9EYP-13T39501982022-12-07 12:32:38-34.5431-57.98219512614876Clb=6.1m/s t=-61.3C h=4.2% 403.500MHz Type=RS41-SG rdzTTGOsonde
LW9EYP-15T39501982022-12-07 12:32:26-34.5431-57.98398111714841Clb=5.7m/s t=-61.2C h=3.9% p=-1.0hPa 403.499 MHz Type=RS41-SG ser=T3950198 Radiosonde
LW9EYP-13T39501982022-12-07 12:31:48-34.543-57.989610012214729Clb=9.3m/s t=-61.0C h=4.2% 403.500MHz Type=RS41-SG rdzTTGOsonde
LW9EYP-15T39501982022-12-07 12:31:11-34.5426-57.99499011314622Clb=7.3m/s t=-62.2C h=4.2% p=-1.0hPa 403.499 MHz Type=RS41-SG ser=T3950198 Radiosonde
LW9EYP-13T39501982022-12-07 12:30:51-34.5427-57.99768813114569Clb=8.8m/s t=-63.1C h=4.8% 403.500MHz Type=RS41-SG rdzTTGOsonde
LW9EYP-13T39501982022-12-07 12:30:00-34.5428-58.00659314614409Clb=8.2m/s t=-62.8C h=5.3% 403.500MHz Type=RS41-SG rdzTTGOsonde
LW9EYP-15T39501982022-12-07 12:29:54-34.5427-58.00788713714388Clb=8.7m/s t=-62.7C h=5.3% p=-1.0hPa 403.499 MHz Type=RS41-SG ser=T3950198 Radiosonde
LW9EYP-13T39501982022-12-07 12:29:09-34.5426-58.01468813114245Clb=8.8m/s t=-62.4C h=5.6% 403.500MHz Type=RS41-SG rdzTTGOsonde
LW9EYP-15T39501982022-12-07 12:28:39-34.5428-58.01977413914154Clb=4.9m/s t=-61.6C h=5.0% p=-1.0hPa 403.499 MHz Type=RS41-SG ser=T3950198 Radiosonde
LW9EYP-12T39501982022-12-07 12:28:24-34.5431-58.02188813914111Clb=10.7m/s t=-61.2C h=5.2% 403.500MHz Type=RS41-SG rdzTTGOsonde
LW9EYP-13T39501982022-12-07 12:28:20-34.5431-58.02269213114092Clb=7.7m/s t=-61.1C h=5.2% 403.500MHz Type=RS41-SG rdzTTGOsonde
LW9EYP-12T39501982022-12-07 12:27:32-34.5436-58.03039813913956Clb=5.9m/s t=-60.1C h=5.3% 403.500MHz Type=RS41-SG rdzTTGOsonde
LW9EYP-13T39501982022-12-07 12:27:23-34.5434-58.03169414413942Clb=4.7m/s t=-59.9C h=5.2% 403.500MHz Type=RS41-SG rdzTTGOsonde
LW9EYP-15T39501982022-12-07 12:27:20-34.5434-58.03258514413927Clb=9.2m/s t=-59.8C h=4.9% p=-1.0hPa 403.499 MHz Type=RS41-SG ser=T3950198 Radiosonde
LW9EYP-12T39501982022-12-07 12:26:38-34.544-58.03948815013806Clb=5.3m/s t=-59.3C h=5.9% 403.500MHz Type=RS41-SG rdzTTGOsonde
LW9EYP-13T39501982022-12-07 12:26:30-34.544-58.04089016113789Clb=8.0m/s t=-59.2C h=6.0% 403.500MHz Type=RS41-SG rdzTTGOsonde
LW9EYP-15T39501982022-12-07 12:26:00-34.5441-58.0478316113670Clb=9.8m/s t=-58.7C h=5.9% p=-1.0hPa 403.499 MHz Type=RS41-SG ser=T3950198 Radiosonde
LW9EYP-13T39501982022-12-07 12:25:43-34.5441-58.05029616713611Clb=4.5m/s t=-58.3C h=6.7% 403.500MHz Type=RS41-SG rdzTTGOsonde
LW9EYP-13T39501982022-12-07 12:24:50-34.5429-58.06019719113455Clb=11.2m/s t=-58.0C h=7.8% 403.500MHz Type=RS41-SG rdzTTGOsonde
LW9EYP-12T39501982022-12-07 12:24:42-34.5427-58.061610216713422Clb=10.7m/s t=-57.9C h=8.1% 403.500MHz Type=RS41-SG rdzTTGOsonde
LW9EYP-13T39501982022-12-07 12:24:01-34.5414-58.071210317613283Clb=6.5m/s t=-56.9C h=9.2% 403.500MHz Type=RS41-SG rdzTTGOsonde
LW9EYP-12T39501982022-12-07 12:23:58-34.5411-58.072710718113266Clb=8.1m/s t=-56.9C h=9.3% 403.500MHz Type=RS41-SG rdzTTGOsonde
LW9EYP-15T39501982022-12-07 12:23:53-34.5401-58.077711015213198Clb=9.9m/s t=-56.8C h=10.7% p=-1.0hPa 403.499 MHz Type=RS41-SG ser=T3950198 Radiosonde
LW9EYP-12T39501982022-12-07 12:23:47-34.5385-58.083810016313096Clb=4.9m/s t=-57.1C h=14.3% 403.500MHz Type=RS41-SG rdzTTGOsonde
LW9EYP-13T39501982022-12-07 12:23:25-34.5373-58.091410016512957Clb=8.6m/s t=-57.1C h=19.3% 403.500MHz Type=RS41-SG rdzTTGOsonde
LW9EYP-15T39501982022-12-07 12:23:24-34.5372-58.09249515712938Clb=10.2m/s t=-57.0C h=19.4% p=-1.0hPa 403.499 MHz Type=RS41-SG ser=T3950198 Radiosonde
LW9EYP-12T39501982022-12-07 12:23:17-34.537-58.093810016312910Clb=8.7m/s t=-56.9C h=20.6% 403.500MHz Type=RS41-SG rdzTTGOsonde
LW9EYP-13T39501982022-12-07 12:22:58-34.5364-58.1019415712774Clb=9.0m/s t=-56.2C h=24.5% 403.500MHz Type=RS41-SG rdzTTGOsonde
LW9EYP-15T39501982022-12-07 12:22:51-34.5363-58.10759316512643Clb=11.7m/s t=-55.3C h=26.7% p=-1.0hPa 403.499 MHz Type=RS41-SG ser=T3950198 Radiosonde
LW9EYP-13T39501982022-12-07 12:22:50-34.5363-58.11138615912566Clb=8.3m/s t=-55.0C h=29.5% 403.500MHz Type=RS41-SG rdzTTGOsonde
LW9EYP-13T39501982022-12-07 12:22:42-34.537-58.1228417212360Clb=10.3m/s t=-54.0C h=31.8% 403.500MHz Type=RS41-SG rdzTTGOsonde
LW9EYP-12T39501982022-12-07 12:21:47-34.568-58.369292616954Clb=9.2m/s t=-16.4C h=64.9% 403.500MHz Type=RS41-SG rdzTTGOsonde
LW9EYP-15T39501982022-12-07 12:21:44-34.568-58.369689596938Clb=8.1m/s t=-16.7C h=71.3% p=-1.0hPa 403.499 MHz Type=RS41-SG ser=T3950198 Radiosonde
LW9EYP-13T39501982022-12-07 12:21:38-34.5679-58.3792576922Clb=8.4m/s t=-16.7C h=72.4% 403.500MHz Type=RS41-SG rdzTTGOsonde
LW9EYP-12T39501982022-12-07 12:21:07-34.5681-58.372482396790Clb=8.0m/s t=-16.6C h=82.0% 403.500MHz Type=RS41-SG rdzTTGOsonde
LW9EYP-13T39501982022-12-07 12:20:58-34.5682-58.372875436759Clb=8.8m/s t=-16.5C h=81.4% 403.500MHz Type=RS41-SG rdzTTGOsonde
LW9EYP-15T39501982022-12-07 12:20:41-34.5685-58.37477486684Clb=8.0m/s t=-16.4C h=83.1% p=-1.0hPa 403.499 MHz Type=RS41-SG ser=T3950198 Radiosonde
LW9EYP-12T39501982022-12-07 12:20:19-34.5688-58.375168506622Clb=7.7m/s t=-15.9C h=80.6% 403.500MHz Type=RS41-SG rdzTTGOsonde
LW9EYP-13T39501982022-12-07 12:20:12-34.569-58.375769526591Clb=8.5m/s t=-15.7C h=79.2% 403.500MHz Type=RS41-SG rdzTTGOsonde
LW9EYP-12T39501982022-12-07 12:19:36-34.5697-58.378377616454Clb=8.8m/s t=-15.0C h=83.5% 403.500MHz Type=RS41-SG rdzTTGOsonde
LW9EYP-15T39501982022-12-07 12:19:33-34.5698-58.378775596439Clb=8.5m/s t=-14.9C h=81.7% p=-1.0hPa 403.499 MHz Type=RS41-SG ser=T3950198 Radiosonde
LW9EYP-13T39501982022-12-07 12:19:24-34.5698-58.37977616423Clb=6.1m/s t=-14.7C h=81.8% 403.500MHz Type=RS41-SG rdzTTGOsonde
LW9EYP-12T39501982022-12-07 12:18:45-34.5706-58.381980636296Clb=7.1m/s t=-13.7C h=77.4% 403.500MHz Type=RS41-SG rdzTTGOsonde
LW9EYP-13T39501982022-12-07 12:18:39-34.5707-58.382579616271Clb=7.5m/s t=-13.5C h=78.0% 403.500MHz Type=RS41-SG rdzTTGOsonde
LW9EYP-15T39501982022-12-07 12:18:19-34.5711-58.384172596203Clb=7.6m/s t=-12.9C h=75.1% p=-1.0hPa 403.499 MHz Type=RS41-SG ser=T3950198 Radiosonde
LW9EYP-12T39501982022-12-07 12:18:02-34.5715-58.385672676140Clb=7.7m/s t=-12.3C h=72.4% 403.500MHz Type=RS41-SG rdzTTGOsonde
LW9EYP-13T39501982022-12-07 12:17:54-34.5717-58.386370676108Clb=8.9m/s t=-12.1C h=75.3% 403.500MHz Type=RS41-SG rdzTTGOsonde
LW9EYP-15T39501982022-12-07 12:17:19-34.5727-58.389875565951Clb=8.1m/s t=-10.9C h=78.4% p=-1.0hPa 403.499 MHz Type=RS41-SG ser=T3950198 Radiosonde
LW9EYP-12T39501982022-12-07 12:17:15-34.5727-58.389978595944Clb=7.4m/s t=-10.8C h=78.2% 403.500MHz Type=RS41-SG rdzTTGOsonde
LW9EYP-13T39501982022-12-07 12:17:11-34.5728-58.390376595928Clb=7.5m/s t=-10.7C h=78.9% 403.500MHz Type=RS41-SG rdzTTGOsonde
LW9EYP-12T39501982022-12-07 12:16:35-34.5735-58.393583445770Clb=8.3m/s t=-11.4C h=88.2% 403.500MHz Type=RS41-SG rdzTTGOsonde
LW9EYP-13T39501982022-12-07 12:16:33-34.5735-58.393682415761Clb=9.0m/s t=-11.3C h=87.8% 403.500MHz Type=RS41-SG rdzTTGOsonde
LW9EYP-15T39501982022-12-07 12:16:21-34.5737-58.394789525695Clb=7.5m/s t=-10.7C h=85.3% p=-1.0hPa 403.499 MHz Type=RS41-SG ser=T3950198 Radiosonde
LW9EYP-12T39501982022-12-07 12:16:00-34.5738-58.396383465606Clb=8.0m/s t=-9.8C h=78.1% 403.500MHz Type=RS41-SG rdzTTGOsonde
LW9EYP-13T39501982022-12-07 12:15:57-34.5738-58.396690485591Clb=7.1m/s t=-9.7C h=77.3% 403.500MHz Type=RS41-SG rdzTTGOsonde
LW9EYP-15T39501982022-12-07 12:15:25-34.5739-58.399185465447Clb=9.2m/s t=-8.4C h=72.6% p=-1.0hPa 403.499 MHz Type=RS41-SG ser=T3950198 Radiosonde
LW9EYP-12T39501982022-12-07 12:15:22-34.574-58.399386505439Clb=8.1m/s t=-8.3C h=72.2% 403.500MHz Type=RS41-SG rdzTTGOsonde
LW9EYP-13T39501982022-12-07 12:15:20-34.574-58.399486485430Clb=7.5m/s t=-8.3C h=71.9% 403.500MHz Type=RS41-SG rdzTTGOsonde
LW9EYP-12T39501982022-12-07 12:14:43-34.5742-58.402588525273Clb=7.2m/s t=-6.7C h=65.9% 403.500MHz Type=RS41-SG rdzTTGOsonde
LW9EYP-15T39501982022-12-07 12:14:26-34.5743-58.403984565204Clb=8.6m/s t=-6.2C h=62.3% p=-1.0hPa 403.499 MHz Type=RS41-SG ser=T3950198 Radiosonde
LW9EYP-12T39501982022-12-07 12:14:04-34.5744-58.405788465121Clb=8.0m/s t=-6.0C h=65.4% 403.500MHz Type=RS41-SG rdzTTGOsonde
LW9EYP-13T39501982022-12-07 12:14:02-34.5744-58.405892435113Clb=8.1m/s t=-6.2C h=67.7% 403.500MHz Type=RS41-SG rdzTTGOsonde
LW9EYP-15T39501982022-12-07 12:13:26-34.574-58.4078127394967Clb=7.9m/s t=-5.4C h=69.0% p=-1.0hPa 403.499 MHz Type=RS41-SG ser=T3950198 Radiosonde
LW9EYP-13T39501982022-12-07 12:13:21-34.5739-58.4079128434960Clb=5.8m/s t=-5.3C h=68.3% 403.500MHz Type=RS41-SG rdzTTGOsonde
LW9EYP-13T39501982022-12-07 12:12:34-34.5732-58.41131284830Clb=7.2m/s t=-4.6C h=70.9% 403.500MHz Type=RS41-SG rdzTTGOsonde
LW9EYP-15T39501982022-12-07 12:12:13-34.5728-58.4107144284754Clb=6.9m/s t=-4.0C h=68.3% p=-1.0hPa 403.499 MHz Type=RS41-SG ser=T3950198 Radiosonde
LW9EYP-13T39501982022-12-07 12:11:48-34.5723-58.4113122264670Clb=8.7m/s t=-3.2C h=63.4% 403.500MHz Type=RS41-SG rdzTTGOsonde
LW9EYP-15T39501982022-12-07 12:11:05-34.5716-58.4122153194513Clb=7.6m/s t=-2.2C h=65.3% p=-1.0hPa 403.499 MHz Type=RS41-SG ser=T3950198 Radiosonde
LW9EYP-12T39501982022-12-07 12:11:03-34.5716-58.4122155194513Clb=7.6m/s t=-2.2C h=65.3% 403.500MHz Type=RS41-SG rdzTTGOsonde
LW9EYP-13T39501982022-12-07 12:10:15-34.5706-58.413147224352Clb=7.7m/s t=-1.2C h=78.1% 403.500MHz Type=RS41-SG rdzTTGOsonde
LW9EYP-15T39501982022-12-07 12:09:52-34.5702-58.4134114194275Clb=8.2m/s t=-0.8C h=79.4% p=-1.0hPa 403.499 MHz Type=RS41-SG ser=T3950198 Radiosonde
LW9EYP-12T39501982022-12-07 12:09:28-34.57-58.4138150174200Clb=7.4m/s t=-0.2C h=77.8% 403.500MHz Type=RS41-SG rdzTTGOsonde
LW9EYP-13T39501982022-12-07 12:09:26-34.5699-58.4138140174193Clb=8.1m/s t=-0.2C h=77.4% 403.500MHz Type=RS41-SG rdzTTGOsonde
LW9EYP-12T39501982022-12-07 12:08:43-34.5693-58.4142182114046Clb=8.6m/s t=0.8C h=75.3% 403.500MHz Type=RS41-SG rdzTTGOsonde
LW9EYP-13T39501982022-12-07 12:08:39-34.5693-58.4142181114037Clb=8.8m/s t=0.9C h=75.1% 403.500MHz Type=RS41-SG rdzTTGOsonde
LW9EYP-12T39501982022-12-07 12:07:57-34.5687-58.4139221133880Clb=8.5m/s t=2.1C h=73.0% 403.500MHz Type=RS41-SG rdzTTGOsonde
LW9EYP-13T39501982022-12-07 12:07:55-34.5687-58.4139213153872Clb=7.8m/s t=2.2C h=72.9% 403.500MHz Type=RS41-SG rdzTTGOsonde
LW9EYP-15T39501982022-12-07 12:07:34-34.5684-58.4136217133786Clb=8.3m/s t=2.8C h=71.4% p=-1.0hPa 403.499 MHz Type=RS41-SG ser=T3950198 Radiosonde
LW9EYP-12T39501982022-12-07 12:07:12-34.5682-58.4133237173716Clb=9.0m/s t=3.3C h=71.1% 403.500MHz Type=RS41-SG rdzTTGOsonde
LW9EYP-13T39501982022-12-07 12:07:10-34.5682-58.4133233193707Clb=8.3m/s t=3.4C h=70.2% 403.500MHz Type=RS41-SG rdzTTGOsonde
LW9EYP-12T39501982022-12-07 12:06:30-34.5676-58.4124234173559Clb=7.9m/s t=4.3C h=69.1% 403.500MHz Type=RS41-SG rdzTTGOsonde
LW9EYP-13T39501982022-12-07 12:06:28-34.5676-58.4123246153552Clb=8.0m/s t=4.4C h=68.7% 403.500MHz Type=RS41-SG rdzTTGOsonde
LW9EYP-12T39501982022-12-07 12:05:46-34.567-58.4115243153396Clb=8.1m/s t=5.5C h=72.9% 403.500MHz Type=RS41-SG rdzTTGOsonde
LW9EYP-15T39501982022-12-07 12:05:22-34.5668-58.411122393302Clb=7.7m/s t=6.3C h=72.8% p=-1.0hPa 403.499 MHz Type=RS41-SG ser=T3950198 Radiosonde
LW9EYP-12T39501982022-12-07 12:05:00-34.5667-58.410825973232Clb=6.6m/s t=6.7C h=76.6% 403.500MHz Type=RS41-SG rdzTTGOsonde
LW9EYP-13T39501982022-12-07 12:04:18-34.5666-58.41067563078Clb=8.2m/s t=7.5C h=73.9% 403.500MHz Type=RS41-SG rdzTTGOsonde
LW9EYP-12T39501982022-12-07 12:04:16-34.5666-58.410610743070Clb=8.0m/s t=7.5C h=74.2% 403.500MHz Type=RS41-SG rdzTTGOsonde
LW9EYP-13T39501982022-12-07 12:03:49-34.5665-58.410723142921Clb=8.0m/s t=8.4C h=80.9% 403.500MHz Type=RS41-SG rdzTTGOsonde
LW9EYP-12T39501982022-12-07 12:03:48-34.5665-58.410724942913Clb=6.9m/s t=8.5C h=80.4% 403.500MHz Type=RS41-SG rdzTTGOsonde
LW9EYP-15T39501982022-12-07 12:03:44-34.5665-58.410623922818Clb=7.4m/s t=9.2C h=69.0% p=-1.0hPa 403.499 MHz Type=RS41-SG ser=T3950198 Radiosonde
LW9EYP-13T39501982022-12-07 12:03:35-34.5663-58.410524772759Clb=7.3m/s t=9.7C h=64.4% 403.500MHz Type=RS41-SG rdzTTGOsonde
LW9EYP-12T39501982022-12-07 12:03:33-34.5663-58.410425972744Clb=8.6m/s t=9.8C h=63.8% 403.500MHz Type=RS41-SG rdzTTGOsonde
LW9EYP-13T39501982022-12-07 12:03:11-34.566-58.410222472583Clb=8.5m/s t=11.2C h=56.6% 403.500MHz Type=RS41-SG rdzTTGOsonde
LW9EYP-12T39501982022-12-07 12:02:52-34.565-58.410782111464Clb=8.2m/s t=20.2C h=43.5% 403.500MHz Type=RS41-SG rdzTTGOsonde
LW9EYP-15T39501982022-12-07 12:02:51-34.5649-58.411297131376Clb=7.9m/s t=20.9C h=43.1% p=-1.0hPa 403.499 MHz Type=RS41-SG ser=T3950198 Radiosonde
LW9EYP-13T39501982022-12-07 12:02:50-34.5649-58.411699111298Clb=7.8m/s t=21.6C h=41.4% 403.500MHz Type=RS41-SG rdzTTGOsonde
LW9EYP-13T39501982022-12-07 12:02:48-34.5648-58.4124103131140Clb=7.5m/s t=22.9C h=37.7% 403.500MHz Type=RS41-SG rdzTTGOsonde
LW9EYP-12T39501982022-12-07 12:02:46-34.5648-58.412493131132Clb=8.4m/s t=22.9C h=37.8% 403.500MHz Type=RS41-SG rdzTTGOsonde
LW9EYP-13T39501982022-12-07 12:02:22-34.5648-58.41329817981Clb=8.5m/s t=23.9C 403.500MHz Type=RS41-SG rdzTTGOsonde
LW9EYP-12T39501982022-12-07 12:02:20-34.5647-58.413310019964Clb=7.5m/s t=24.0C h=37.4% 403.500MHz Type=RS41-SG rdzTTGOsonde
LW9EYP-13T39501982022-12-07 12:02:00-34.5645-58.414211419822Clb=7.4m/s t=23.6C 403.500MHz Type=RS41-SG rdzTTGOsonde
LW9EYP-12T39501982022-12-07 12:01:59-34.5645-58.414211124815Clb=6.6m/s t=23.6C h=43.0% 403.500MHz Type=RS41-SG rdzTTGOsonde
LW9EYP-13T39501982022-12-07 12:01:58-34.5637-58.415213420679Clb=8.1m/s 403.500MHz Type=RS41-SG rdzTTGOsonde
LW9EYP-13T39501982022-12-07 12:01:55-34.5635-58.41581457535Clb=7.1m/s 403.500MHz Type=RS41 rdzTTGOsonde
LW9EYP-12T39501982022-12-07 12:01:52-34.5638-58.41633329370Clb=6.9m/s 403.500MHz Type=RS41 rdzTTGOsonde
LW9EYP-12T39501982022-12-07 12:01:49-34.5639-58.41675224236Clb=6.4m/s 403.500MHz Type=RS41 rdzTTGOsonde